createdAt,value
2023-02-11T00:00:27.768Z,101650.31
2023-02-11T00:03:30.894Z,101650.41
2023-02-11T00:06:35.453Z,101625.28
2023-02-11T00:09:38.424Z,101641.75
2023-02-11T00:12:41.090Z,101643.37
2023-02-11T00:15:44.036Z,101637.28
2023-02-11T00:18:47.424Z,101634.03
2023-02-11T00:21:50.539Z,101629.31
2023-02-11T00:24:53.736Z,101626.97
2023-02-11T00:27:56.881Z,101619.81
2023-02-11T00:31:01.694Z,101630.16
2023-02-11T00:34:04.933Z,101616.41
2023-02-11T00:37:08.170Z,101628.66
2023-02-11T00:40:11.822Z,101634.94
2023-02-11T00:43:14.451Z,101625.44
2023-02-11T00:46:17.569Z,101613.94
2023-02-11T00:49:20.256Z,101615.25
2023-02-11T00:52:24.477Z,101610.72
2023-02-11T00:55:27.267Z,101602.66
2023-02-11T00:58:31.447Z,101601.97
2023-02-11T01:01:34.904Z,101590.38
2023-02-11T01:04:38.133Z,101576.47
2023-02-11T01:07:40.837Z,101587.91
2023-02-11T01:10:44.104Z,101598.34
2023-02-11T01:13:48.136Z,101579.75
2023-02-11T01:16:51.633Z,101578.56
2023-02-11T01:19:56.901Z,101575.91
2023-02-11T01:22:59.910Z,101578.91
2023-02-11T01:26:02.712Z,101566.78
2023-02-11T01:29:06.017Z,101559.13
2023-02-11T01:32:08.821Z,101552.31
2023-02-11T01:35:11.856Z,101549.13
2023-02-11T01:38:26.200Z,101549.34
2023-02-11T01:41:29.199Z,101517.72
2023-02-11T01:44:36.922Z,101533.06
2023-02-11T01:47:39.881Z,101542.00
2023-02-11T01:50:43.288Z,101540.31
2023-02-11T01:54:06.600Z,101509.09
2023-02-11T01:57:27.792Z,101541.16
2023-02-11T02:00:36.825Z,101544.97
2023-02-11T02:03:43.857Z,101507.66
2023-02-11T02:06:56.044Z,101537.94
2023-02-11T02:10:04.649Z,101515.53
2023-02-11T02:13:07.391Z,101529.75
2023-02-11T02:16:16.721Z,101524.53
2023-02-11T02:19:34.911Z,101532.50
2023-02-11T02:23:10.204Z,101533.28
2023-02-11T02:26:21.618Z,101526.66
2023-02-11T02:29:33.580Z,101525.94
2023-02-11T02:32:54.745Z,101529.22
2023-02-11T02:36:06.070Z,101502.41
2023-02-11T02:39:24.180Z,101522.75
2023-02-11T02:42:27.200Z,101497.63
2023-02-11T02:45:30.075Z,101502.28
2023-02-11T02:48:35.766Z,101519.72
2023-02-11T02:52:05.419Z,101517.06
2023-02-11T02:55:11.327Z,101520.69
2023-02-11T02:58:35.695Z,101518.69
2023-02-11T03:01:38.675Z,101514.84
2023-02-11T03:05:06.225Z,101505.72
2023-02-11T03:08:17.231Z,101492.75
2023-02-11T03:11:22.244Z,101518.88
2023-02-11T03:14:26.896Z,101486.12
2023-02-11T03:17:34.025Z,101515.50
2023-02-11T03:20:39.117Z,101498.56
2023-02-11T03:23:47.967Z,101512.91
2023-02-11T03:26:53.834Z,101480.16
2023-02-11T03:30:10.481Z,101501.63
2023-02-11T03:33:53.324Z,101478.22
2023-02-11T03:37:18.085Z,101501.84
2023-02-11T03:40:29.701Z,101473.63
2023-02-11T03:43:37.505Z,101491.53
2023-02-11T03:46:43.584Z,101459.63
2023-02-11T03:49:49.908Z,101462.72
2023-02-11T03:52:55.752Z,101480.81
2023-02-11T03:56:02.719Z,101478.41
2023-02-11T03:59:05.732Z,101472.12
2023-02-11T04:02:08.436Z,101471.59
2023-02-11T04:05:15.634Z,101472.44
2023-02-11T04:08:18.383Z,101473.16
2023-02-11T04:11:21.334Z,101478.69
2023-02-11T04:14:23.983Z,101470.41
2023-02-11T04:17:26.972Z,101463.50
2023-02-11T04:20:30.045Z,101462.31
2023-02-11T04:23:32.992Z,101430.19
2023-02-11T04:26:35.686Z,101425.22
2023-02-11T04:29:38.788Z,101448.06
2023-02-11T04:32:41.552Z,101438.38
2023-02-11T04:35:45.018Z,101438.38
2023-02-11T04:38:47.733Z,101441.25
2023-02-11T04:41:50.768Z,101433.63
2023-02-11T04:44:53.562Z,101421.59
2023-02-11T04:47:56.572Z,101427.22
2023-02-11T04:50:59.951Z,101432.75
2023-02-11T04:54:02.914Z,101420.28
2023-02-11T04:57:05.824Z,101420.94
2023-02-11T05:00:10.156Z,101418.22
2023-02-11T05:03:13.365Z,101386.00
2023-02-11T05:06:16.628Z,101417.25
2023-02-11T05:09:19.411Z,101413.09
2023-02-11T05:12:22.604Z,101392.34
2023-02-11T05:15:25.401Z,101413.91
2023-02-11T05:18:28.290Z,101421.22
2023-02-11T05:21:31.087Z,101395.03
2023-02-11T05:24:34.940Z,101393.16
2023-02-11T05:27:37.564Z,101412.22
2023-02-11T05:30:40.618Z,101400.69
2023-02-11T05:33:43.492Z,101403.25
2023-02-11T05:36:46.496Z,101425.56
2023-02-11T05:39:49.346Z,101430.66
2023-02-11T05:42:52.316Z,101432.53
2023-02-11T05:45:55.500Z,101433.87
2023-02-11T05:48:58.665Z,101422.91
2023-02-11T05:52:01.527Z,101434.28
2023-02-11T05:55:04.810Z,101435.25
2023-02-11T05:58:08.262Z,101419.72
2023-02-11T06:01:11.181Z,101428.88
2023-02-11T06:04:14.140Z,101427.84
2023-02-11T06:07:17.546Z,101437.50
2023-02-11T06:10:20.621Z,101429.34
2023-02-11T06:13:23.396Z,101433.31
2023-02-11T06:16:26.604Z,101432.16
2023-02-11T06:19:29.410Z,101425.69
2023-02-11T06:22:32.414Z,101422.34
2023-02-11T06:25:35.203Z,101425.31
2023-02-11T06:28:41.861Z,101420.09
2023-02-11T06:31:44.743Z,101439.84
2023-02-11T06:34:47.849Z,101402.41
2023-02-11T06:37:50.541Z,101414.19
2023-02-11T06:40:53.681Z,101397.59
2023-02-11T06:43:56.419Z,101418.69
2023-02-11T06:46:59.385Z,101401.59
2023-02-11T06:50:02.134Z,101407.22
2023-02-11T06:53:05.173Z,101402.41
2023-02-11T06:56:10.731Z,101388.00
2023-02-11T06:59:19.119Z,101380.13
2023-02-11T07:02:22.082Z,101367.03
2023-02-11T07:05:25.128Z,101383.06
2023-02-11T07:08:27.946Z,101373.75
2023-02-11T07:11:34.603Z,101375.13
2023-02-11T07:14:37.356Z,101378.78
2023-02-11T07:17:40.357Z,101375.06
2023-02-11T07:20:43.112Z,101373.59
2023-02-11T07:23:46.575Z,101370.41
2023-02-11T07:26:49.264Z,101365.37
2023-02-11T07:29:52.376Z,101346.31
2023-02-11T07:32:56.495Z,101364.91
2023-02-11T07:36:02.944Z,101367.88
2023-02-11T07:39:05.688Z,101339.78
2023-02-11T07:42:08.836Z,101371.53
2023-02-11T07:45:11.703Z,101373.03
2023-02-11T07:48:14.652Z,101382.06
2023-02-11T07:51:20.166Z,101370.50
2023-02-11T07:54:23.231Z,101363.78
2023-02-11T07:57:26.070Z,101357.19
2023-02-11T08:00:29.188Z,101370.91
2023-02-11T08:03:33.279Z,101365.78
2023-02-11T08:06:40.012Z,101361.75
2023-02-11T08:09:43.036Z,101351.09
2023-02-11T08:12:45.874Z,101346.69
2023-02-11T08:15:49.263Z,101330.12
2023-02-11T08:18:54.092Z,101359.37
2023-02-11T08:21:57.719Z,101337.12
2023-02-11T08:25:00.582Z,101355.28
2023-02-11T08:28:03.732Z,101364.66
2023-02-11T08:31:18.981Z,101354.78
2023-02-11T08:34:22.068Z,101352.75
2023-02-11T08:37:24.896Z,101360.47
2023-02-11T08:40:27.959Z,101351.16
2023-02-11T08:43:31.122Z,101337.56
2023-02-11T08:46:34.192Z,101353.34
2023-02-11T08:49:37.538Z,101342.56
2023-02-11T08:52:40.664Z,101346.25
2023-02-11T08:55:54.677Z,101346.03
2023-02-11T08:58:57.654Z,101324.81
2023-02-11T09:02:00.498Z,101345.59
2023-02-11T09:05:03.617Z,101345.28
2023-02-11T09:08:06.367Z,101354.06
2023-02-11T09:11:10.468Z,101353.22
2023-02-11T09:14:18.477Z,101354.19
2023-02-11T09:17:21.493Z,101338.78
2023-02-11T09:20:26.449Z,101342.22
2023-02-11T09:23:29.431Z,101362.16
2023-02-11T09:26:34.259Z,101352.50
2023-02-11T09:29:37.665Z,101347.84
2023-02-11T09:32:40.655Z,101339.88
2023-02-11T09:35:43.608Z,101332.66
2023-02-11T09:38:47.152Z,101331.56
2023-02-11T09:42:32.434Z,101312.66
2023-02-11T09:45:35.555Z,101344.78
2023-02-11T09:48:41.954Z,101332.50
2023-02-11T09:52:28.088Z,101328.06
2023-02-11T09:55:38.000Z,101331.09
2023-02-11T09:58:43.584Z,101310.06
2023-02-11T10:01:55.212Z,101318.63
2023-02-11T10:05:34.588Z,101317.41
2023-02-11T10:08:51.305Z,101308.84
2023-02-11T10:12:28.425Z,101310.56
2023-02-11T10:15:52.014Z,101294.59
2023-02-11T10:19:13.982Z,101297.53
2023-02-11T10:22:25.682Z,101291.50
2023-02-11T10:25:37.123Z,101284.87
2023-02-11T10:28:42.323Z,101277.19
2023-02-11T10:31:47.550Z,101275.72
2023-02-11T10:34:52.434Z,101285.09
2023-02-11T10:37:56.220Z,101276.22
2023-02-11T10:40:58.939Z,101252.97
2023-02-11T10:44:02.053Z,101278.19
2023-02-11T10:47:12.924Z,101260.19
2023-02-11T10:50:29.892Z,101267.59
2023-02-11T10:53:37.625Z,101267.13
2023-02-11T10:56:53.513Z,101273.69
2023-02-11T11:00:05.449Z,101272.38
2023-02-11T11:03:20.962Z,101266.47
2023-02-11T11:06:32.911Z,101236.13
2023-02-11T11:09:54.148Z,101241.47
2023-02-11T11:12:56.844Z,101251.22
2023-02-11T11:16:17.339Z,101235.25
2023-02-11T11:19:25.371Z,101238.75
2023-02-11T11:22:29.278Z,101235.22
2023-02-11T11:25:32.269Z,101215.78
2023-02-11T11:28:50.624Z,101234.38
2023-02-11T11:31:58.057Z,101233.16
2023-02-11T11:35:06.007Z,101219.03
2023-02-11T11:38:14.036Z,101221.62
2023-02-11T11:41:29.287Z,101219.66
2023-02-11T11:44:36.320Z,101195.44
2023-02-11T11:48:00.663Z,101191.62
2023-02-11T11:51:12.741Z,101199.94
2023-02-11T11:54:20.108Z,101192.19
2023-02-11T11:57:28.752Z,101186.72
2023-02-11T12:00:44.084Z,101156.75
2023-02-11T12:04:02.692Z,101173.81
2023-02-11T12:07:14.473Z,101160.66
2023-02-11T12:10:32.071Z,101160.22
2023-02-11T12:14:12.169Z,101159.59
2023-02-11T12:17:25.034Z,101153.59
2023-02-11T12:20:39.938Z,101152.88
2023-02-11T12:23:58.477Z,101131.19
2023-02-11T12:27:10.933Z,101143.81
2023-02-11T12:30:32.955Z,101135.31
2023-02-11T12:33:58.590Z,101128.13
2023-02-11T12:37:16.563Z,101127.44
2023-02-11T12:40:37.211Z,101106.69
2023-02-11T12:43:43.507Z,101084.91
2023-02-11T12:46:55.247Z,101085.59
2023-02-11T12:50:07.712Z,101084.63
2023-02-11T12:53:40.596Z,101088.81
2023-02-11T12:56:55.460Z,101081.22
2023-02-11T13:00:22.619Z,101080.03
2023-02-11T13:03:35.045Z,101067.09
2023-02-11T13:06:42.406Z,101055.00
2023-02-11T13:09:53.961Z,101054.47
2023-02-11T13:13:16.697Z,101042.91
2023-02-11T13:16:40.139Z,101054.37
2023-02-11T13:19:54.649Z,101028.72
2023-02-11T13:23:39.448Z,101046.38
2023-02-11T13:26:50.917Z,101048.31
2023-02-11T13:30:30.216Z,101043.63
2023-02-11T13:33:43.043Z,101035.56
2023-02-11T13:36:57.609Z,101043.44
2023-02-11T13:40:01.665Z,101042.62
2023-02-11T13:43:07.550Z,101036.63
2023-02-11T13:46:15.663Z,101027.78
2023-02-11T13:49:22.356Z,101025.81
2023-02-11T13:52:30.571Z,101014.38
2023-02-11T13:55:34.983Z,101021.50
2023-02-11T13:58:49.152Z,101048.62
2023-02-11T14:02:36.275Z,101052.44
2023-02-11T14:06:27.197Z,101050.03
2023-02-11T14:09:36.325Z,101047.13
2023-02-11T14:12:39.362Z,101042.28
2023-02-11T14:15:42.028Z,101040.78
2023-02-11T14:18:45.064Z,101034.84
2023-02-11T14:21:48.091Z,101011.59
2023-02-11T14:24:55.636Z,101025.84
2023-02-11T14:28:26.733Z,101022.25
2023-02-11T14:31:43.147Z,101023.19
2023-02-11T14:35:06.852Z,101009.72
2023-02-11T14:38:31.428Z,101013.19
2023-02-11T14:41:46.007Z,101016.47
2023-02-11T14:44:51.900Z,101013.66
2023-02-11T14:48:03.609Z,101017.00
2023-02-11T14:51:15.563Z,101033.25
2023-02-11T14:54:24.109Z,101012.06
2023-02-11T14:57:28.090Z,101010.75
2023-02-11T15:00:30.908Z,101024.94
2023-02-11T15:03:42.606Z,101021.09
2023-02-11T15:06:49.802Z,101034.19
2023-02-11T15:09:54.195Z,101014.94
2023-02-11T15:12:58.472Z,101016.81
2023-02-11T15:16:07.034Z,100998.63
2023-02-11T15:19:25.716Z,101014.75
2023-02-11T15:22:33.192Z,100996.56
2023-02-11T15:25:43.432Z,101001.97
2023-02-11T15:28:52.150Z,100983.47
2023-02-11T15:32:14.748Z,100978.63
2023-02-11T15:35:18.916Z,100969.22
2023-02-11T15:38:21.976Z,100983.69
2023-02-11T15:41:38.236Z,100979.00
2023-02-11T15:44:41.527Z,100982.87
2023-02-11T15:47:52.082Z,100990.91
2023-02-11T15:51:01.576Z,100988.09
2023-02-11T15:54:26.879Z,100985.94
2023-02-11T15:57:29.984Z,100990.88
2023-02-11T16:00:45.056Z,100994.75
2023-02-11T16:03:50.891Z,100991.41
2023-02-11T16:06:55.380Z,100997.53
2023-02-11T16:09:58.911Z,101007.69
2023-02-11T16:13:07.800Z,100998.44
2023-02-11T16:16:23.695Z,101019.63
2023-02-11T16:19:28.328Z,101005.34
2023-02-11T16:22:35.474Z,101003.69
2023-02-11T16:25:38.366Z,100990.53
2023-02-11T16:28:41.663Z,100970.72
2023-02-11T16:31:47.366Z,100976.59
2023-02-11T16:34:52.851Z,100974.28
2023-02-11T16:37:55.762Z,100952.59
2023-02-11T16:40:59.056Z,100960.84
2023-02-11T16:44:02.041Z,100977.28
2023-02-11T16:47:08.018Z,100968.34
2023-02-11T16:50:19.572Z,100961.78
2023-02-11T16:53:24.764Z,100955.09
2023-02-11T16:56:28.021Z,100972.28
2023-02-11T16:59:31.578Z,100964.22
2023-02-11T17:02:37.088Z,100975.50
2023-02-11T17:05:54.714Z,100958.75
2023-02-11T17:08:58.702Z,100978.25
2023-02-11T17:12:02.022Z,100972.22
2023-02-11T17:15:07.538Z,100976.91
2023-02-11T17:18:14.378Z,100973.53
2023-02-11T17:21:18.811Z,100963.09
2023-02-11T17:24:22.469Z,100985.00
2023-02-11T17:27:25.328Z,100970.84
2023-02-11T17:30:28.517Z,100975.75
2023-02-11T17:33:31.509Z,100982.50
2023-02-11T17:36:35.515Z,100957.59
2023-02-11T17:39:40.266Z,100975.13
2023-02-11T17:42:43.702Z,100955.28
2023-02-11T17:45:46.496Z,100970.78
2023-02-11T17:48:50.468Z,100970.78
2023-02-11T17:51:53.447Z,100965.87
2023-02-11T17:54:58.215Z,100963.03
2023-02-11T17:58:02.692Z,100961.84
2023-02-11T18:01:06.119Z,100935.13
2023-02-11T18:04:14.452Z,100957.16
2023-02-11T18:07:19.487Z,100954.81
2023-02-11T18:10:22.798Z,100945.56
2023-02-11T18:13:25.983Z,100930.75
2023-02-11T18:16:30.523Z,100933.47
2023-02-11T18:19:35.944Z,100956.84
2023-02-11T18:22:40.967Z,100942.37
2023-02-11T18:25:44.324Z,100973.84
2023-02-11T18:28:48.058Z,100970.78
2023-02-11T18:31:51.069Z,100974.69
2023-02-11T18:34:54.333Z,100976.50
2023-02-11T18:37:58.063Z,100982.87
2023-02-11T18:41:01.458Z,100978.50
2023-02-11T18:44:05.027Z,100955.44
2023-02-11T18:47:08.412Z,100972.44
2023-02-11T18:50:13.819Z,100969.53
2023-02-11T18:53:17.233Z,100957.94
2023-02-11T18:56:23.088Z,100957.28
2023-02-11T18:59:26.701Z,100948.69
2023-02-11T19:02:29.808Z,100954.22
2023-02-11T19:05:47.402Z,100958.78
2023-02-11T19:08:51.590Z,100939.78
2023-02-11T19:11:55.441Z,100955.78
2023-02-11T19:15:00.540Z,100939.50
2023-02-11T19:18:03.904Z,100946.56
2023-02-11T19:21:11.021Z,100958.66
2023-02-11T19:24:19.039Z,100956.31
2023-02-11T19:27:21.990Z,100955.78
2023-02-11T19:30:25.252Z,100962.00
2023-02-11T19:33:28.581Z,100960.19
2023-02-11T19:36:32.133Z,100961.16
2023-02-11T19:39:35.119Z,100962.50
2023-02-11T19:42:38.989Z,100966.91
2023-02-11T19:45:41.908Z,100961.34
2023-02-11T19:48:45.723Z,100965.69
2023-02-11T19:51:52.762Z,100938.03
2023-02-11T19:54:56.604Z,100960.19
2023-02-11T19:57:59.548Z,100967.12
2023-02-11T20:01:11.034Z,100973.06
2023-02-11T20:04:16.065Z,100974.78
2023-02-11T20:07:19.372Z,100974.94
2023-02-11T20:10:24.440Z,100972.94
2023-02-11T20:13:28.002Z,100963.72
2023-02-11T20:16:46.895Z,100976.69
2023-02-11T20:19:50.885Z,100963.72
2023-02-11T20:22:54.188Z,100975.47
2023-02-11T20:25:57.165Z,100978.31
2023-02-11T20:29:02.384Z,100982.03
2023-02-11T20:32:07.150Z,100982.37
2023-02-11T20:35:10.945Z,100985.06
2023-02-11T20:38:14.132Z,100979.87
2023-02-11T20:41:25.565Z,100982.56
2023-02-11T20:44:28.574Z,100964.56
2023-02-11T20:47:31.819Z,100941.03
2023-02-11T20:50:35.166Z,100961.59
2023-02-11T20:53:40.264Z,100958.09
2023-02-11T20:56:45.526Z,100948.69
2023-02-11T20:59:50.404Z,100943.31
2023-02-11T21:02:53.616Z,100940.22
2023-02-11T21:06:03.622Z,100929.41
2023-02-11T21:09:10.665Z,100919.03
2023-02-11T21:12:13.942Z,100930.03
2023-02-11T21:15:16.869Z,100922.16
2023-02-11T21:18:19.856Z,100907.81
2023-02-11T21:21:23.237Z,100932.28
2023-02-11T21:24:26.416Z,100914.16
2023-02-11T21:27:33.116Z,100924.03
2023-02-11T21:30:40.424Z,100925.69
2023-02-11T21:33:43.327Z,100945.69
2023-02-11T21:36:47.129Z,100941.38
2023-02-11T21:39:50.153Z,100921.69
2023-02-11T21:42:53.702Z,100946.78
2023-02-11T21:45:57.176Z,100954.28
2023-02-11T21:49:00.603Z,100934.16
2023-02-11T21:52:03.743Z,100959.41
2023-02-11T21:55:07.101Z,100946.00
2023-02-11T21:58:12.121Z,100969.88
2023-02-11T22:01:18.221Z,100970.91
2023-02-11T22:04:21.821Z,100968.13
2023-02-11T22:07:26.057Z,100970.13
2023-02-11T22:10:29.101Z,100966.09
2023-02-11T22:13:31.851Z,100960.41
2023-02-11T22:16:35.351Z,100947.09
2023-02-11T22:19:38.121Z,100967.81
2023-02-11T22:22:41.174Z,100960.25
2023-02-11T22:25:43.833Z,100947.56
2023-02-11T22:28:47.357Z,100959.22
2023-02-11T22:31:50.354Z,100941.41
2023-02-11T22:34:53.695Z,100951.56
2023-02-11T22:37:56.356Z,100951.69
2023-02-11T22:41:04.669Z,100954.09
2023-02-11T22:44:07.917Z,100964.53
2023-02-11T22:47:10.982Z,100971.19
2023-02-11T22:50:13.670Z,100955.78
2023-02-11T22:53:16.739Z,100986.56
2023-02-11T22:56:19.553Z,100993.44
2023-02-11T22:59:22.624Z,100995.12
2023-02-11T23:02:25.384Z,100989.69
2023-02-11T23:05:28.569Z,100987.84
2023-02-11T23:08:32.381Z,100991.41
2023-02-11T23:11:35.896Z,100981.88
2023-02-11T23:14:38.597Z,100977.47
2023-02-11T23:17:41.574Z,100979.16
2023-02-11T23:20:44.221Z,100967.88
2023-02-11T23:23:48.998Z,100961.44
2023-02-11T23:26:51.671Z,100983.00
2023-02-11T23:29:57.880Z,100976.94
2023-02-11T23:33:00.536Z,100976.66
2023-02-11T23:36:03.715Z,100982.47
2023-02-11T23:39:06.439Z,100983.38
2023-02-11T23:42:09.549Z,100988.81
2023-02-11T23:45:12.712Z,100985.53
2023-02-11T23:48:15.698Z,100981.06
2023-02-11T23:51:19.256Z,100986.59
2023-02-11T23:54:22.500Z,100978.09
2023-02-11T23:57:25.144Z,100960.84
